createdAt,value
2017-12-27T00:02:20.681Z,78.60
2017-12-27T00:04:53.832Z,78.50
2017-12-27T00:07:26.964Z,78.50
2017-12-27T00:10:00.737Z,78.50
2017-12-27T00:12:33.752Z,78.50
2017-12-27T00:15:06.932Z,78.50
2017-12-27T00:17:40.160Z,78.50
2017-12-27T00:20:14.036Z,78.60
2017-12-27T00:22:47.270Z,78.60
2017-12-27T00:25:20.354Z,78.60
2017-12-27T00:27:53.457Z,78.50
2017-12-27T00:30:26.537Z,78.60
2017-12-27T00:32:53.978Z,78.70
2017-12-27T00:35:22.167Z,78.80
2017-12-27T00:37:49.600Z,78.80
2017-12-27T00:40:17.789Z,78.90
2017-12-27T00:42:45.970Z,78.80
2017-12-27T00:45:13.390Z,78.90
2017-12-27T00:47:40.825Z,78.90
2017-12-27T00:50:08.247Z,78.90
2017-12-27T00:52:35.693Z,78.90
2017-12-27T00:55:03.895Z,79.00
2017-12-27T00:57:31.324Z,78.90
2017-12-27T00:59:58.757Z,79.00
2017-12-27T01:02:26.197Z,79.00
2017-12-27T01:04:53.625Z,79.00
2017-12-27T01:07:21.065Z,79.00
2017-12-27T01:09:48.486Z,79.10
2017-12-27T01:12:15.907Z,79.10
2017-12-27T01:14:43.331Z,79.30
2017-12-27T01:17:11.559Z,79.00
2017-12-27T01:19:38.981Z,79.00
2017-12-27T01:22:06.421Z,79.00
2017-12-27T01:24:33.854Z,79.00
2017-12-27T01:27:02.061Z,79.00
2017-12-27T01:29:29.493Z,79.00
2017-12-27T01:31:57.712Z,79.00
2017-12-27T01:34:25.139Z,78.90
2017-12-27T01:36:52.652Z,78.90
2017-12-27T01:39:20.069Z,78.90
2017-12-27T01:41:47.473Z,78.90
2017-12-27T01:44:14.904Z,78.30
2017-12-27T01:46:42.343Z,78.20
2017-12-27T01:49:09.790Z,78.20
2017-12-27T01:51:37.205Z,77.70
2017-12-27T01:54:06.232Z,77.90
2017-12-27T01:56:33.642Z,77.80
2017-12-27T01:59:01.086Z,78.00
2017-12-27T02:01:28.520Z,78.10
2017-12-27T02:03:55.965Z,78.10
2017-12-27T02:06:23.397Z,77.80
2017-12-27T02:08:51.613Z,77.70
2017-12-27T02:11:19.041Z,77.70
2017-12-27T02:13:46.471Z,77.70
2017-12-27T02:16:13.894Z,77.90
2017-12-27T02:18:41.331Z,78.10
2017-12-27T02:21:08.762Z,78.10
2017-12-27T02:23:36.970Z,78.20
2017-12-27T02:26:04.394Z,78.20
2017-12-27T02:28:32.602Z,78.20
2017-12-27T02:31:00.028Z,78.00
2017-12-27T02:33:27.469Z,78.10
2017-12-27T02:35:55.666Z,78.40
2017-12-27T02:38:34.974Z,78.10
2017-12-27T02:41:03.177Z,77.70
2017-12-27T02:43:30.612Z,78.10
2017-12-27T02:45:58.800Z,78.10
2017-12-27T02:48:26.241Z,78.10
2017-12-27T02:50:54.431Z,78.10
2017-12-27T02:53:21.870Z,78.20
2017-12-27T02:55:50.064Z,78.20
2017-12-27T02:58:18.266Z,78.20
2017-12-27T03:00:45.684Z,78.00
2017-12-27T03:03:13.952Z,78.20
2017-12-27T03:05:41.331Z,78.10
2017-12-27T03:08:08.744Z,78.20
2017-12-27T03:10:36.206Z,78.20
2017-12-27T03:13:03.603Z,78.10
2017-12-27T03:15:31.028Z,78.00
2017-12-27T03:17:58.439Z,78.10
2017-12-27T03:20:25.872Z,78.10
2017-12-27T03:22:53.305Z,78.10
2017-12-27T03:25:21.513Z,78.10
2017-12-27T03:27:48.941Z,78.10
2017-12-27T03:30:17.146Z,78.10
2017-12-27T03:32:44.589Z,78.10
2017-12-27T03:35:12.025Z,78.10
2017-12-27T03:37:40.224Z,78.10
2017-12-27T03:40:07.667Z,78.20
2017-12-27T03:42:35.864Z,78.10
2017-12-27T03:45:03.309Z,78.00
2017-12-27T03:47:30.738Z,78.10
2017-12-27T03:49:58.950Z,78.80
2017-12-27T03:52:26.417Z,78.00
2017-12-27T03:54:54.582Z,78.00
2017-12-27T03:57:22.013Z,77.90
2017-12-27T03:59:50.207Z,78.10
2017-12-27T04:02:17.636Z,77.90
2017-12-27T04:04:45.841Z,78.00
2017-12-27T04:07:13.268Z,77.90
2017-12-27T04:09:41.459Z,77.50
2017-12-27T04:12:09.638Z,77.90
2017-12-27T04:14:37.082Z,77.80
2017-12-27T04:17:05.281Z,77.90
2017-12-27T04:19:33.897Z,77.70
2017-12-27T04:22:01.336Z,77.80
2017-12-27T04:24:28.774Z,77.80
2017-12-27T04:26:56.201Z,77.70
2017-12-27T04:29:23.644Z,77.80
2017-12-27T04:31:51.080Z,77.80
2017-12-27T04:34:18.523Z,77.70
2017-12-27T04:36:45.947Z,77.70
2017-12-27T04:39:13.399Z,77.70
2017-12-27T04:41:41.609Z,78.00
2017-12-27T04:44:09.040Z,77.60
2017-12-27T04:46:36.477Z,77.60
2017-12-27T04:49:04.677Z,77.70
2017-12-27T04:51:32.117Z,77.70
2017-12-27T04:54:00.312Z,77.70
2017-12-27T04:56:27.757Z,77.60
2017-12-27T04:58:55.179Z,77.10
2017-12-27T05:01:22.612Z,77.40
2017-12-27T05:03:50.035Z,76.90
2017-12-27T05:06:17.459Z,76.90
2017-12-27T05:08:44.901Z,75.40
2017-12-27T05:11:12.332Z,75.30
2017-12-27T05:13:39.782Z,75.50
2017-12-27T05:16:07.221Z,75.60
2017-12-27T05:18:34.646Z,75.50
2017-12-27T05:21:02.084Z,75.70
2017-12-27T05:23:29.508Z,75.20
2017-12-27T05:25:56.957Z,75.50
2017-12-27T05:28:24.397Z,75.80
2017-12-27T05:30:51.841Z,75.80
2017-12-27T05:33:20.037Z,75.60
2017-12-27T05:35:47.471Z,75.60
2017-12-27T05:38:15.667Z,75.80
2017-12-27T05:40:43.105Z,75.80
2017-12-27T05:43:11.300Z,75.40
2017-12-27T05:45:38.760Z,75.40
2017-12-27T05:48:06.928Z,75.60
2017-12-27T05:50:34.364Z,75.60
2017-12-27T05:53:02.552Z,76.00
2017-12-27T05:55:30.777Z,75.80
2017-12-27T05:57:58.207Z,75.80
2017-12-27T06:00:25.634Z,76.10
2017-12-27T06:02:53.843Z,76.20
2017-12-27T06:05:21.268Z,76.20
2017-12-27T06:07:49.475Z,76.40
2017-12-27T06:10:16.909Z,76.40
2017-12-27T06:12:44.350Z,76.60
2017-12-27T06:15:12.548Z,76.80
2017-12-27T06:17:39.993Z,76.80
2017-12-27T06:20:07.425Z,76.90
2017-12-27T06:22:34.865Z,77.00
2017-12-27T06:25:02.298Z,77.00
2017-12-27T06:27:29.742Z,77.10
2017-12-27T06:29:57.160Z,77.20
2017-12-27T06:32:25.359Z,77.30
2017-12-27T06:34:52.795Z,77.30
2017-12-27T06:37:20.206Z,77.30
2017-12-27T06:39:47.631Z,77.50
2017-12-27T06:42:15.074Z,77.50
2017-12-27T06:44:43.284Z,77.60
2017-12-27T06:47:10.713Z,77.60
2017-12-27T06:49:38.149Z,77.70
2017-12-27T06:52:06.353Z,78.50
2017-12-27T06:54:33.780Z,77.70
2017-12-27T06:57:01.984Z,78.00
2017-12-27T06:59:29.421Z,78.00
2017-12-27T07:01:57.654Z,78.20
2017-12-27T07:04:25.086Z,78.20
2017-12-27T07:06:52.524Z,78.30
2017-12-27T07:09:19.948Z,78.30
2017-12-27T07:11:47.389Z,78.40
2017-12-27T07:14:14.814Z,78.50
2017-12-27T07:16:42.257Z,78.60
2017-12-27T07:19:09.689Z,78.60
2017-12-27T07:21:37.885Z,78.50
2017-12-27T07:24:05.306Z,78.50
2017-12-27T07:26:32.722Z,78.40
2017-12-27T07:29:00.941Z,79.10
2017-12-27T07:31:29.134Z,78.60
2017-12-27T07:33:57.344Z,78.60
2017-12-27T07:36:24.787Z,78.50
2017-12-27T07:38:52.220Z,78.70
2017-12-27T07:41:20.412Z,78.80
2017-12-27T07:43:47.854Z,78.70
2017-12-27T07:46:16.046Z,79.00
2017-12-27T07:48:43.488Z,79.00
2017-12-27T07:51:10.921Z,79.00
2017-12-27T07:53:38.367Z,78.80
2017-12-27T07:56:05.792Z,79.00
2017-12-27T07:58:33.242Z,79.10
2017-12-27T08:01:00.678Z,79.00
2017-12-27T08:03:28.111Z,79.20
2017-12-27T08:05:56.307Z,79.10
2017-12-27T08:08:23.745Z,79.10
2017-12-27T08:10:51.935Z,79.10
2017-12-27T08:13:19.382Z,79.10
2017-12-27T08:15:47.610Z,79.20
2017-12-27T08:18:15.051Z,79.20
2017-12-27T08:20:42.485Z,79.10
2017-12-27T08:23:09.930Z,79.30
2017-12-27T08:25:38.125Z,79.40
2017-12-27T08:28:05.566Z,79.40
2017-12-27T08:30:33.760Z,79.70
2017-12-27T08:33:01.183Z,79.70
2017-12-27T08:35:29.382Z,79.30
2017-12-27T08:37:56.820Z,79.20
2017-12-27T08:40:25.025Z,79.90
2017-12-27T08:42:52.474Z,79.90
2017-12-27T08:45:19.900Z,80.00
2017-12-27T08:47:47.334Z,79.60
2017-12-27T08:50:14.771Z,80.00
2017-12-27T08:52:42.205Z,79.70
2017-12-27T08:55:09.649Z,79.80
2017-12-27T08:57:37.846Z,79.60
2017-12-27T09:00:05.274Z,79.50
2017-12-27T09:02:33.481Z,79.60
2017-12-27T09:05:00.922Z,79.50
2017-12-27T09:07:28.359Z,79.40
2017-12-27T09:09:56.574Z,79.80
2017-12-27T09:12:24.005Z,79.70
2017-12-27T09:14:51.446Z,79.70
2017-12-27T09:17:19.644Z,79.80
2017-12-27T09:19:47.086Z,79.70
2017-12-27T09:22:15.284Z,80.00
2017-12-27T09:24:42.729Z,79.90
2017-12-27T09:27:10.161Z,80.00
2017-12-27T09:29:38.370Z,80.10
2017-12-27T09:32:05.803Z,80.10
2017-12-27T09:34:34.010Z,79.70
2017-12-27T09:37:01.441Z,79.70
2017-12-27T09:39:28.873Z,79.80
2017-12-27T09:41:56.313Z,79.80
2017-12-27T09:44:23.749Z,79.90
2017-12-27T09:46:51.171Z,79.70
2017-12-27T09:49:18.619Z,79.80
2017-12-27T09:51:46.832Z,79.70
2017-12-27T09:54:14.261Z,79.70
2017-12-27T09:56:41.693Z,79.80
2017-12-27T09:59:09.902Z,79.80
2017-12-27T10:01:37.758Z,79.70
2017-12-27T10:04:05.201Z,79.70
2017-12-27T10:06:33.402Z,80.00
2017-12-27T10:09:01.605Z,79.90
2017-12-27T10:11:29.044Z,79.80
2017-12-27T10:13:56.477Z,80.00
2017-12-27T10:16:23.921Z,80.70
2017-12-27T10:18:52.324Z,80.00
2017-12-27T10:21:19.760Z,80.00
2017-12-27T10:23:47.207Z,80.00
2017-12-27T10:26:15.414Z,80.20
2017-12-27T10:28:42.850Z,80.80
2017-12-27T10:31:11.061Z,80.00
2017-12-27T10:33:38.481Z,80.00
2017-12-27T10:36:05.921Z,79.90
2017-12-27T10:38:33.357Z,80.10
2017-12-27T10:41:01.565Z,80.10
2017-12-27T10:43:29.785Z,80.20
2017-12-27T10:45:57.234Z,80.20
2017-12-27T10:48:24.665Z,80.00
2017-12-27T10:50:52.866Z,80.00
2017-12-27T10:53:20.288Z,80.00
2017-12-27T10:55:48.509Z,79.80
2017-12-27T10:58:15.939Z,79.80
2017-12-27T11:00:43.378Z,79.80
2017-12-27T11:03:11.570Z,79.90
2017-12-27T11:05:39.014Z,79.90
2017-12-27T11:08:07.222Z,79.90
2017-12-27T11:10:34.640Z,79.90
2017-12-27T11:13:02.836Z,79.80
2017-12-27T11:15:30.278Z,79.70
2017-12-27T11:17:57.781Z,79.90
2017-12-27T11:20:25.221Z,79.90
2017-12-27T11:22:52.660Z,80.50
2017-12-27T11:25:20.088Z,79.80
2017-12-27T11:27:48.298Z,79.80
2017-12-27T11:30:15.745Z,79.80
2017-12-27T11:32:43.177Z,79.90
2017-12-27T11:35:11.398Z,79.90
2017-12-27T11:37:38.823Z,79.70
2017-12-27T11:40:07.012Z,79.80
2017-12-27T11:42:34.456Z,79.80
2017-12-27T11:45:02.645Z,79.80
2017-12-27T11:47:30.076Z,79.80
2017-12-27T11:49:58.282Z,79.80
2017-12-27T11:52:25.712Z,79.80
2017-12-27T11:54:53.899Z,80.00
2017-12-27T11:57:21.336Z,80.00
2017-12-27T11:59:49.542Z,79.90
2017-12-27T12:02:16.972Z,79.80
2017-12-27T12:04:45.168Z,79.90
2017-12-27T12:07:12.640Z,79.80
2017-12-27T12:09:40.082Z,79.80
2017-12-27T12:12:07.544Z,79.80
2017-12-27T12:14:34.993Z,79.80
2017-12-27T12:17:02.438Z,79.80
2017-12-27T12:19:30.642Z,79.80
2017-12-27T12:21:58.081Z,79.90
2017-12-27T12:24:25.509Z,80.00
2017-12-27T12:26:52.946Z,80.00
2017-12-27T12:29:20.385Z,80.10
2017-12-27T12:31:47.834Z,80.00
2017-12-27T12:34:15.267Z,79.90
2017-12-27T12:36:42.717Z,80.00
2017-12-27T12:39:10.149Z,80.00
2017-12-27T12:41:37.598Z,80.00
2017-12-27T12:44:05.073Z,80.00
2017-12-27T12:46:33.291Z,80.00
2017-12-27T12:49:00.717Z,80.00
2017-12-27T12:51:28.157Z,80.20
2017-12-27T12:53:55.585Z,80.20
2017-12-27T12:56:23.020Z,80.30
2017-12-27T12:58:50.455Z,80.30
2017-12-27T13:01:17.901Z,80.20
2017-12-27T13:03:45.367Z,80.40
2017-12-27T13:06:12.793Z,80.30
2017-12-27T13:08:43.920Z,80.40
2017-12-27T13:11:11.348Z,80.40
2017-12-27T13:13:38.788Z,80.40
2017-12-27T13:16:06.215Z,81.30
2017-12-27T13:18:34.436Z,80.50
2017-12-27T13:21:01.879Z,80.40
2017-12-27T13:23:29.313Z,80.50
2017-12-27T13:25:57.513Z,80.60
2017-12-27T13:28:24.971Z,80.60
2017-12-27T13:30:52.398Z,80.50
2017-12-27T13:33:20.593Z,80.90
2017-12-27T13:35:48.034Z,80.90
2017-12-27T13:38:16.246Z,80.60
2017-12-27T13:40:43.675Z,80.60
2017-12-27T13:43:11.099Z,80.70
2017-12-27T13:45:38.533Z,80.80
2017-12-27T13:48:06.018Z,80.80
2017-12-27T13:50:33.453Z,80.80
2017-12-27T13:53:01.685Z,81.00
2017-12-27T13:55:29.120Z,81.20
2017-12-27T13:57:57.322Z,80.90
2017-12-27T14:00:24.758Z,80.90
2017-12-27T14:02:52.969Z,81.20
2017-12-27T14:05:20.403Z,81.20
2017-12-27T14:07:47.842Z,81.00
2017-12-27T14:10:16.041Z,81.00
2017-12-27T14:12:43.486Z,80.90
2017-12-27T14:15:10.926Z,81.10
2017-12-27T14:17:39.148Z,81.10
2017-12-27T14:20:06.585Z,81.00
2017-12-27T14:22:34.029Z,81.20
2017-12-27T14:25:02.223Z,81.10
2017-12-27T14:27:29.681Z,81.00
2017-12-27T14:29:57.109Z,81.10
2017-12-27T14:32:25.318Z,81.10
2017-12-27T14:34:52.758Z,81.10
2017-12-27T14:37:20.186Z,81.10
2017-12-27T14:39:47.630Z,81.10
2017-12-27T14:42:15.058Z,81.80
2017-12-27T14:44:42.518Z,81.30
2017-12-27T14:47:09.954Z,81.40
2017-12-27T14:49:37.399Z,81.40
2017-12-27T14:52:04.835Z,81.40
2017-12-27T14:54:33.053Z,81.90
2017-12-27T14:57:00.482Z,81.30
2017-12-27T14:59:27.925Z,81.40
2017-12-27T15:01:56.135Z,81.40
2017-12-27T15:04:23.574Z,81.40
2017-12-27T15:06:51.020Z,81.60
2017-12-27T15:09:19.240Z,81.70
2017-12-27T15:11:46.683Z,81.60
2017-12-27T15:14:14.142Z,81.60
2017-12-27T15:16:41.571Z,81.60
2017-12-27T15:19:09.778Z,81.50
2017-12-27T15:21:37.214Z,81.50
2017-12-27T15:24:04.663Z,81.60
2017-12-27T15:26:32.854Z,81.70
2017-12-27T15:29:01.011Z,81.70
2017-12-27T15:31:28.451Z,81.80
2017-12-27T15:33:56.665Z,82.30
2017-12-27T15:36:24.108Z,81.70
2017-12-27T15:38:51.583Z,81.90
2017-12-27T15:41:18.999Z,81.80
2017-12-27T15:43:47.217Z,81.90
2017-12-27T15:46:14.650Z,81.80
2017-12-27T15:48:42.098Z,81.80
2017-12-27T15:51:10.294Z,81.90
2017-12-27T15:53:37.720Z,81.90
2017-12-27T15:56:06.105Z,82.00
2017-12-27T15:58:34.372Z,82.00
2017-12-27T16:01:01.805Z,82.00
2017-12-27T16:03:29.244Z,82.00
2017-12-27T16:05:56.697Z,82.00
2017-12-27T16:08:24.145Z,82.00
2017-12-27T16:10:51.584Z,82.00
2017-12-27T16:13:19.030Z,82.00
2017-12-27T16:15:47.234Z,82.00
2017-12-27T16:18:14.670Z,82.00
2017-12-27T16:20:42.105Z,82.00
2017-12-27T16:23:10.314Z,82.10
2017-12-27T16:25:37.777Z,82.10
2017-12-27T16:28:05.197Z,82.10
2017-12-27T16:30:33.416Z,82.20
2017-12-27T16:33:00.846Z,82.20
2017-12-27T16:35:28.290Z,82.30
2017-12-27T16:37:56.488Z,82.30
2017-12-27T16:40:23.935Z,82.20
2017-12-27T16:42:51.366Z,82.20
2017-12-27T16:45:19.587Z,82.40
2017-12-27T16:47:47.028Z,82.40
2017-12-27T16:50:14.462Z,82.40
2017-12-27T16:52:42.689Z,82.50
2017-12-27T16:55:10.136Z,82.40
2017-12-27T16:57:37.573Z,82.40
2017-12-27T17:00:05.034Z,82.40
2017-12-27T17:02:32.457Z,82.40
2017-12-27T17:05:00.676Z,82.50
2017-12-27T17:07:28.097Z,82.50
2017-12-27T17:09:56.314Z,82.60
2017-12-27T17:12:23.746Z,82.60
2017-12-27T17:14:51.188Z,82.70
2017-12-27T17:17:19.381Z,82.70
2017-12-27T17:19:46.822Z,82.60
2017-12-27T17:22:15.033Z,82.80
2017-12-27T17:24:42.461Z,82.70
2017-12-27T17:27:09.910Z,82.80
2017-12-27T17:29:38.110Z,82.80
2017-12-27T17:32:05.554Z,82.80
2017-12-27T17:34:32.990Z,82.80
2017-12-27T17:37:01.241Z,82.80
2017-12-27T17:39:28.640Z,82.90
2017-12-27T17:41:56.093Z,82.80
2017-12-27T17:44:24.298Z,82.80
2017-12-27T17:46:51.741Z,82.80
2017-12-27T17:49:19.173Z,82.80
2017-12-27T17:51:47.383Z,82.90
2017-12-27T17:54:14.809Z,82.80
2017-12-27T17:56:43.018Z,82.90
2017-12-27T17:59:10.457Z,82.90
2017-12-27T18:01:37.898Z,82.90
2017-12-27T18:04:06.109Z,82.90
2017-12-27T18:06:33.585Z,82.90
2017-12-27T18:09:01.020Z,82.90
2017-12-27T18:11:28.456Z,82.90
2017-12-27T18:13:55.888Z,82.90
2017-12-27T18:16:24.087Z,82.90
2017-12-27T18:18:51.533Z,82.90
2017-12-27T18:21:19.745Z,83.00
2017-12-27T18:23:47.172Z,82.80
2017-12-27T18:26:14.617Z,82.90
2017-12-27T18:28:42.839Z,82.90
2017-12-27T18:31:10.270Z,82.90
2017-12-27T18:33:37.696Z,82.90
2017-12-27T18:36:05.892Z,83.00
2017-12-27T18:38:33.322Z,82.90
2017-12-27T18:41:00.806Z,82.90
2017-12-27T18:43:29.008Z,83.70
2017-12-27T18:45:56.444Z,83.00
2017-12-27T18:48:23.880Z,83.00
2017-12-27T18:50:52.095Z,83.70
2017-12-27T18:53:19.552Z,83.00
2017-12-27T18:55:46.990Z,83.00
2017-12-27T18:58:14.428Z,83.10
2017-12-27T19:00:42.629Z,83.10
2017-12-27T19:03:10.074Z,83.00
2017-12-27T19:05:37.567Z,83.10
2017-12-27T19:08:05.019Z,83.10
2017-12-27T19:10:32.446Z,83.00
2017-12-27T19:12:59.884Z,82.90
2017-12-27T19:15:28.088Z,83.10
2017-12-27T19:17:55.530Z,82.90
2017-12-27T19:20:23.735Z,83.10
2017-12-27T19:22:51.180Z,82.90
2017-12-27T19:25:18.614Z,83.10
2017-12-27T19:27:46.821Z,82.90
2017-12-27T19:30:14.240Z,82.90
2017-12-27T19:32:42.464Z,83.00
2017-12-27T19:35:09.898Z,83.00
2017-12-27T19:37:37.332Z,83.20
2017-12-27T19:40:05.544Z,83.10
2017-12-27T19:42:32.997Z,83.00
2017-12-27T19:45:00.425Z,83.10
2017-12-27T19:47:28.646Z,83.10
2017-12-27T19:49:56.077Z,83.10
2017-12-27T19:52:23.512Z,83.10
2017-12-27T19:54:51.705Z,83.00
2017-12-27T19:57:19.133Z,83.00
2017-12-27T19:59:47.328Z,83.10
2017-12-27T20:02:14.762Z,83.10
2017-12-27T20:04:42.948Z,83.10
2017-12-27T20:07:11.160Z,83.10
2017-12-27T20:09:38.594Z,83.10
2017-12-27T20:12:06.020Z,83.10
2017-12-27T20:14:34.230Z,83.50
2017-12-27T20:17:01.670Z,83.20
2017-12-27T20:19:29.887Z,83.30
2017-12-27T20:21:58.075Z,84.00
2017-12-27T20:24:25.516Z,83.20
2017-12-27T20:26:52.953Z,83.20
2017-12-27T20:29:20.412Z,83.20
2017-12-27T20:31:47.826Z,83.20
2017-12-27T20:34:15.261Z,83.30
2017-12-27T20:36:42.693Z,83.10
2017-12-27T20:39:10.127Z,83.30
2017-12-27T20:41:37.556Z,83.10
2017-12-27T20:44:04.967Z,83.20
2017-12-27T20:46:32.399Z,83.10
2017-12-27T20:48:59.841Z,83.10
2017-12-27T20:51:28.032Z,83.10
2017-12-27T20:53:55.493Z,83.10
2017-12-27T20:56:22.928Z,83.10
2017-12-27T20:58:51.128Z,83.10
2017-12-27T21:01:18.565Z,83.10
2017-12-27T21:03:46.011Z,83.10
2017-12-27T21:06:14.205Z,83.10
2017-12-27T21:08:41.638Z,83.10
2017-12-27T21:11:09.823Z,83.10
2017-12-27T21:13:38.045Z,83.00
2017-12-27T21:16:05.473Z,83.00
2017-12-27T21:18:32.893Z,83.00
2017-12-27T21:21:00.340Z,83.00
2017-12-27T21:23:27.771Z,83.10
2017-12-27T21:25:55.218Z,82.90
2017-12-27T21:28:22.648Z,82.90
2017-12-27T21:30:50.094Z,82.70
2017-12-27T21:33:18.290Z,82.80
2017-12-27T21:35:45.729Z,82.80
2017-12-27T21:38:13.925Z,82.70
2017-12-27T21:40:41.365Z,82.70
2017-12-27T21:43:08.787Z,82.60
2017-12-27T21:45:36.223Z,82.70
2017-12-27T21:48:09.349Z,82.70
2017-12-27T21:50:36.789Z,82.70
2017-12-27T21:53:04.215Z,83.30
2017-12-27T21:55:31.662Z,83.10
2017-12-27T21:58:19.820Z,83.20
2017-12-27T22:00:53.058Z,83.20
2017-12-27T22:03:21.264Z,83.30
2017-12-27T22:05:48.693Z,83.30
2017-12-27T22:08:16.910Z,83.70
2017-12-27T22:10:44.332Z,83.60
2017-12-27T22:13:12.547Z,83.60
2017-12-27T22:15:39.980Z,83.60
2017-12-27T22:18:07.421Z,83.30
2017-12-27T22:20:41.308Z,83.30
2017-12-27T22:23:08.745Z,83.30
2017-12-27T22:25:36.177Z,83.40
2017-12-27T22:28:03.617Z,83.50
2017-12-27T22:30:31.046Z,83.40
2017-12-27T22:32:59.269Z,83.40
2017-12-27T22:35:26.692Z,83.40
2017-12-27T22:37:54.134Z,83.30
2017-12-27T22:40:21.565Z,83.30
2017-12-27T22:42:48.990Z,83.50
2017-12-27T22:45:16.415Z,83.50
2017-12-27T22:47:44.603Z,83.50
2017-12-27T22:50:12.037Z,83.50
2017-12-27T22:52:40.223Z,83.30
2017-12-27T22:55:07.660Z,83.50
2017-12-27T22:57:35.081Z,83.50
2017-12-27T23:00:02.525Z,83.60
2017-12-27T23:02:29.946Z,83.60
2017-12-27T23:04:57.373Z,83.60
2017-12-27T23:07:24.804Z,83.70
2017-12-27T23:09:52.232Z,83.70
2017-12-27T23:12:19.658Z,83.90
2017-12-27T23:14:47.091Z,83.90
2017-12-27T23:17:14.518Z,84.10
2017-12-27T23:19:41.941Z,84.00
2017-12-27T23:22:10.131Z,84.30
2017-12-27T23:24:37.561Z,84.20
2017-12-27T23:27:05.776Z,84.30
2017-12-27T23:29:33.198Z,84.50
2017-12-27T23:32:01.409Z,84.40
2017-12-27T23:34:28.834Z,84.30
2017-12-27T23:36:57.034Z,84.30
2017-12-27T23:39:24.474Z,84.30
2017-12-27T23:41:52.675Z,84.40
2017-12-27T23:44:20.090Z,84.20
2017-12-27T23:46:48.309Z,84.30
2017-12-27T23:49:15.812Z,84.30
2017-12-27T23:51:43.190Z,84.30
2017-12-27T23:54:11.374Z,84.10
2017-12-27T23:56:38.797Z,84.10
2017-12-27T23:59:06.245Z,84.10
